M I D A S
Marine Information and Data Acquisition System
Tripno 1496 of the Zeeleeuw from 2008-05-30 07:44:21 to 2008-05-30 14:10:02
Back to CruiseResearch ActivitiesStationsMapUnderway DataData graphs

EquipmentUnitsComment
TimeDGPSUTC
LatitudeDGPSDM.mWGS84
LongitudeDGPSDM.mWGS84
TemperatureSBE03/SBE38deg celciusITS90
ConductivitySBE21S/mITS90
SalinitySBE21 Practical Salinity Units
ChlorophylAChelsea fluorimeterg/lCalibrated in Aceton
Missing or incorrect values are displayed as -999
Sea surface data collected by the RV Zeeleeuw from 2008-05-30 07:44:13 to 2008-05-30 14:15:19
Time Latitude Longitude Temperature Conductivity Salinity ChlorophylA
2008-05-30 07:45:18 51°13.628 2°56.027 19.8171 0.39754 2.434414 -1.766697
2008-05-30 07:46:18 51°13.655 2°55.925 19.8749 0.397334 2.433074 -1.731873
2008-05-30 07:47:19 51°13.697 2°55.811 19.8694 0.397231 2.43245 -1.766697
2008-05-30 07:48:19 51°13.758 2°55.708 19.8831 0.397128 2.431827 -1.731873
2008-05-30 07:49:18 51°13.838 2°55.642 19.8879 0.397025 2.431295 -1.731873
2008-05-30 07:50:19 51°13.92 2°55.635 19.9147 0.396922 2.430487 -1.766697
2008-05-30 07:51:18 51°13.955 2°55.661 19.8998 0.396819 2.430047 -1.766697
2008-05-30 07:52:18 51°13.979 2°55.574 19.8841 0.396819 2.429863 -1.731873
2008-05-30 07:53:18 51°14.05 2°55.5 19.9236 0.396819 2.430506 -1.766697
2008-05-30 07:54:18 51°14.134 2°55.437 19.9464 0.396819 2.430735 -1.731873
2008-05-30 07:55:18 51°14.214 2°55.364 19.9324 0.396922 2.431451 -1.731873
2008-05-30 07:56:18 51°14.28 2°55.251 19.9142 0.396819 2.430873 -1.766697
2008-05-30 07:57:18 51°14.372 2°55.076 19.8623 0.396922 2.431635 -1.766697
2008-05-30 07:58:18 51°14.532 2°54.897 19.9124 0.396922 2.431681 -1.766697
2008-05-30 07:59:18 51°14.723 2°54.77 19.9123 0.397025 2.432581 -1.731873
2008-05-30 08:00:18 51°14.914 2°54.642 19.9201 0.397128 2.433619 -1.766697
2008-05-30 08:01:18 51°15.102 2°54.502 19.9391 0.397231 2.434381 -1.731873
2008-05-30 08:02:18 51°15.289 2°54.36 19.9408 0.397231 2.434519 -1.766697
2008-05-30 08:03:18 51°15.471 2°54.211 19.9484 0.397437 2.43609 -1.766697
2008-05-30 08:04:18 51°15.642 2°54.039 19.9371 0.397437 2.436182 -1.731873
2008-05-30 08:05:18 51°15.818 2°53.875 16.4069 1.691043 11.318545 9.829713
2008-05-30 08:06:18 51°15.996 2°53.715 16.0296 3.92446 30.540242 12.789757
2008-05-30 08:07:18 51°16.172 2°53.553 15.9364 3.932552 30.812023 13.24247
2008-05-30 08:08:18 51°16.354 2°53.403 15.8889 3.724065 29.056275 13.346942
2008-05-30 08:09:18 51°16.541 2°53.266 15.8497 3.941056 30.983622 12.267396
2008-05-30 08:10:18 51°16.72 2°53.104 15.8184 3.949145 31.090353 11.849508
2008-05-30 08:11:18 51°16.894 2°52.935 15.7695 3.95319 31.147042 11.640563
2008-05-30 08:12:18 51°17.057 2°52.748 15.6327 3.959206 31.268339 10.804786
2008-05-30 08:13:18 51°17.227 2°52.567 15.515 3.962215 31.401532 9.829713
2008-05-30 08:14:18 51°17.41 2°52.42 15.4602 3.960661 31.457179 9.237704
2008-05-30 08:15:18 51°17.622 2°52.378 15.4258 3.967713 31.561723 9.063583
2008-05-30 08:16:18 51°17.838 2°52.363 15.3949 3.96201 31.540171 9.133231
2008-05-30 08:17:18 51°18.053 2°52.387 15.372 3.966884 31.60125 9.133231
2008-05-30 08:18:18 51°18.263 2°52.487 15.3636 3.961907 31.576897 9.342176
2008-05-30 08:19:18 51°18.467 2°52.628 15.3441 3.9589 31.565398 9.063583
2008-05-30 08:20:18 51°18.672 2°52.76 15.3266 3.957241 31.563226 8.610871
2008-05-30 08:21:18 51°18.881 2°52.88 15.2988 3.954026 31.555831 8.297454
2008-05-30 08:22:18 51°19.092 2°52.981 15.2823 3.958797 31.610186 7.949214
2008-05-30 08:23:18 51°19.263 2°53.067 15.2593 3.961493 31.649455 7.775093
2008-05-30 08:24:18 51°19.353 2°53.055 15.2503 3.960975 31.666123 7.392029
2008-05-30 08:25:18 51°19.35 2°52.926 15.2374 3.960871 31.669859 7.392029
2008-05-30 08:26:18 51°19.339 2°52.764 15.2166 3.959005 31.664547 7.600973
2008-05-30 08:27:18 51°19.336 2°52.673 15.1861 3.964502 31.73222 7.496501
2008-05-30 08:28:18 51°19.341 2°52.611 15.161 3.966887 31.774896 7.14826
2008-05-30 08:29:18 51°19.344 2°52.552 15.1385 3.969169 31.816709 7.008964
2008-05-30 08:30:18 51°19.339 2°52.502 15.1141 3.965228 31.79894 6.939316
2008-05-30 08:31:18 51°19.331 2°52.481 15.0995 3.974562 31.90592 6.904492
2008-05-30 08:32:18 51°19.325 2°52.48 15.0971 3.97477 31.916537 6.80002
2008-05-30 08:33:18 51°19.322 2°52.487 15.0737 3.975288 31.92792 6.660724
2008-05-30 08:34:18 51°19.319 2°52.494 15.0651 3.975911 31.945638 6.660724
2008-05-30 08:35:18 51°19.314 2°52.496 15.0638 3.976015 31.953996 6.6259
2008-05-30 08:36:18 51°19.308 2°52.496 15.0513 3.976222 31.963287 7.043788
2008-05-30 08:37:18 51°19.306 2°52.494 15.0518 3.9728 31.91778 6.904492
2008-05-30 08:38:18 51°19.303 2°52.493 15.0351 3.976015 31.962105 6.904492
2008-05-30 08:39:18 51°19.301 2°52.491 15.0423 3.976326 31.968949 6.869668
2008-05-30 08:40:18 51°19.298 2°52.489 15.0344 3.976637 31.966328 6.97414
2008-05-30 08:41:18 51°19.295 2°52.488 15.0413 3.977052 31.97613 6.904492
2008-05-30 08:42:18 51°19.294 2°52.484 15.0411 3.977467 31.978495 6.765196
2008-05-30 08:43:18 51°19.3 2°52.481 15.0468 3.977674 31.976295 6.80002
2008-05-30 08:44:18 51°19.31 2°52.478 15.0484 3.977985 31.976378 6.765196
2008-05-30 08:45:18 51°19.318 2°52.475 15.0365 3.978919 31.986093 6.660724
2008-05-30 08:46:18 51°19.316 2°52.478 15.0378 3.979126 31.993364 6.591076
2008-05-30 08:47:18 51°19.314 2°52.481 15.0335 3.979334 31.999283 6.591076
2008-05-30 08:48:18 51°19.313 2°52.482 15.0522 3.978504 31.991847 6.347307
2008-05-30 08:49:18 51°19.314 2°52.482 15.0585 3.978711 31.976797 6.6259
2008-05-30 08:50:18 51°19.316 2°52.484 15.0621 3.979022 31.976204 6.556251
2008-05-30 08:51:18 51°19.318 2°52.486 15.0593 3.979022 31.974176 6.6259
2008-05-30 08:52:18 51°19.321 2°52.486 15.0644 3.978918 31.973247 6.382131
2008-05-30 08:53:18 51°19.325 2°52.485 15.0692 3.979022 31.974176 6.556251
2008-05-30 08:54:18 51°19.326 2°52.485 15.0654 3.979229 31.969952 6.521427
2008-05-30 08:55:18 51°19.323 2°52.487 15.0663 3.979437 31.975188 6.382131
2008-05-30 08:56:18 51°19.318 2°52.49 15.0869 3.979126 31.96227 6.347307
2008-05-30 08:57:18 51°19.312 2°52.492 15.0963 3.979333 31.958725 6.416955
2008-05-30 08:58:18 51°19.307 2°52.495 15.1071 3.978814 31.943963 6.556251
2008-05-30 08:59:18 51°19.302 2°52.496 15.1268 3.977777 31.921205 6.451779
2008-05-30 09:00:18 51°19.301 2°52.493 15.1344 3.977258 31.903775 6.6259
2008-05-30 09:01:18 51°19.304 2°52.49 15.1317 3.977258 31.900411 6.695548
2008-05-30 09:02:18 51°19.308 2°52.486 15.1272 3.977258 31.903775 6.6259
2008-05-30 09:03:18 51°19.313 2°52.483 15.124 3.978192 31.91212 6.382131
2008-05-30 09:04:18 51°19.317 2°52.48 15.1219 3.978606 31.917848 6.208011
2008-05-30 09:05:18 51°19.319 2°52.477 15.1068 3.979021 31.930314 6.312483
2008-05-30 09:06:18 51°19.317 2°52.475 15.0998 3.97954 31.945738 6.416955
2008-05-30 09:07:18 51°19.313 2°52.474 15.1015 3.97954 31.947087 6.660724
2008-05-30 09:08:18 51°19.309 2°52.472 15.1164 3.979333 31.940511 6.591076
2008-05-30 09:09:18 51°19.306 2°52.469 15.125 3.979229 31.927453 6.521427
2008-05-30 09:10:18 51°19.305 2°52.468 15.1322 3.979125 31.919791 6.556251
2008-05-30 09:11:18 51°19.302 2°52.468 15.1407 3.979021 31.915498 6.242835
2008-05-30 09:12:18 51°19.3 2°52.468 15.1464 3.978814 31.90826 6.382131
2008-05-30 09:13:18 51°19.3 2°52.467 15.1532 3.978502 31.899426 6.730372
2008-05-30 09:14:18 51°19.301 2°52.466 15.1558 3.978295 31.892194 6.834844
2008-05-30 09:15:18 51°19.305 2°52.462 15.1566 3.977984 31.88807 6.80002
2008-05-30 09:16:18 51°19.313 2°52.458 15.1626 3.978087 31.88698 6.765196
2008-05-30 09:17:18 51°19.324 2°52.452 15.1566 3.978399 31.889088 6.660724
2008-05-30 09:18:18 51°19.333 2°52.448 15.1557 3.97871 31.893883 6.521427
2008-05-30 09:19:18 51°19.338 2°52.461 15.1608 3.979539 31.90264 6.486603
2008-05-30 09:20:18 51°19.343 2°52.486 15.1639 3.979851 31.903403 6.556251
2008-05-30 09:21:18 51°19.348 2°52.515 15.1652 3.979643 31.898861 6.6259
2008-05-30 09:22:18 51°19.352 2°52.544 15.1753 3.979332 31.889361 6.486603
2008-05-30 09:23:18 51°19.359 2°52.577 15.1793 3.979021 31.883224 6.6259
2008-05-30 09:24:18 51°19.363 2°52.608 15.185 3.978917 31.878269 6.660724
2008-05-30 09:25:17 51°19.362 2°52.58 15.1819 3.978295 31.869357 6.277659
2008-05-30 09:26:18 51°19.373 2°52.415 15.175 3.977465 31.864634 6.556251
2008-05-30 09:27:17 51°19.346 2°52.146 15.0727 3.982236 31.930771 7.008964
2008-05-30 09:28:18 51°19.335 2°51.844 15.0287 3.983274 32.016998 6.904492
2008-05-30 09:29:18 51°19.333 2°51.543 15.0089 3.984519 32.053899 6.451779
2008-05-30 09:30:18 51°19.34 2°51.24 14.9715 3.98566 32.08178 6.6259
2008-05-30 09:31:18 51°19.345 2°50.939 14.9574 3.990431 32.154548 6.591076
2008-05-30 09:32:18 51°19.349 2°50.639 14.9577 3.991054 32.164229 6.834844
2008-05-30 09:33:18 51°19.357 2°50.338 14.9677 3.991365 32.172481 7.078612
2008-05-30 09:34:17 51°19.371 2°50.045 14.9941 3.99012 32.145621 7.078612
2008-05-30 09:35:18 51°19.378 2°49.743 14.9856 3.989083 32.11793 7.008964
2008-05-30 09:36:18 51°19.385 2°49.446 14.9717 3.991364 32.149984 7.14826
2008-05-30 09:37:18 51°19.397 2°49.149 14.9753 3.992091 32.163999 7.113436
2008-05-30 09:38:18 51°19.406 2°48.852 14.9738 3.991779 32.158479 7.078612
2008-05-30 09:39:17 51°19.417 2°48.561 14.992 3.991572 32.155934 7.357205
2008-05-30 09:40:18 51°19.433 2°48.261 14.9785 3.988461 32.12187 7.426853
2008-05-30 09:41:17 51°19.442 2°47.966 14.9013 3.995721 32.225975 6.660724
2008-05-30 09:42:18 51°19.449 2°47.662 14.8408 4.002774 32.34568 5.790122
2008-05-30 09:43:17 51°19.456 2°47.369 14.8024 4.008168 32.439805 5.198113
2008-05-30 09:44:18 51°19.467 2°47.064 14.7811 4.010139 32.483188 5.023993
2008-05-30 09:45:17 51°19.477 2°46.771 14.7748 4.011176 32.502257 5.023993
2008-05-30 09:46:18 51°19.484 2°46.467 14.773 4.01128 32.50666 5.093641
2008-05-30 09:47:18 51°19.491 2°46.169 14.7868 4.011176 32.505723 5.232937
2008-05-30 09:48:18 51°19.494 2°45.87 14.8004 4.011072 32.491619 5.302586
2008-05-30 09:49:18 51°19.496 2°45.572 14.8127 4.012524 32.49296 5.163289
2008-05-30 09:50:18 51°19.504 2°45.276 14.8271 4.014287 32.499879 5.058817
2008-05-30 09:51:18 51°19.512 2°44.98 14.8457 4.015739 32.499143 5.33741
2008-05-30 09:52:17 51°19.526 2°44.685 14.8538 4.017191 32.501176 5.372234
2008-05-30 09:53:18 51°19.537 2°44.377 14.8468 4.019161 32.516188 5.372234
2008-05-30 09:54:18 51°19.554 2°44.073 14.825 4.021236 32.5446 5.302586
2008-05-30 09:55:17 51°19.573 2°43.773 14.8015 4.022585 32.576883 5.128465
2008-05-30 09:56:18 51°19.596 2°43.466 14.7769 4.024141 32.612475 4.849873
2008-05-30 09:57:17 51°19.613 2°43.172 14.7728 4.024971 32.633195 4.780225
2008-05-30 09:58:18 51°19.63 2°42.868 14.7729 4.025074 32.636222 4.57128
2008-05-30 09:59:17 51°19.653 2°42.572 14.7801 4.024556 32.63014 4.815049
2008-05-30 10:00:18 51°19.618 2°42.277 14.7755 4.023 32.616072 4.849873
2008-05-30 10:01:18 51°19.584 2°41.981 14.7738 4.024348 32.626872 4.710577
2008-05-30 10:02:18 51°19.599 2°41.676 14.7722 4.024452 32.628506 4.815049
2008-05-30 10:03:18 51°19.628 2°41.373 14.7758 4.026111 32.645601 4.849873
2008-05-30 10:04:18 51°19.652 2°41.072 14.793 4.027563 32.652464 4.536456
2008-05-30 10:05:18 51°19.68 2°40.771 14.8185 4.029326 32.653087 4.501632
2008-05-30 10:06:18 51°19.711 2°40.475 14.8348 4.037105 32.700405 4.780225
2008-05-30 10:07:18 51°19.746 2°40.18 14.8325 4.041772 32.737001 4.884697
2008-05-30 10:08:18 51°19.773 2°39.88 14.8002 4.04727 32.793659 4.501632
2008-05-30 10:09:18 51°19.8 2°39.573 14.7359 4.053494 32.890563 3.735503
2008-05-30 10:10:18 51°19.824 2°39.265 14.7083 4.055258 32.946596 3.491735
2008-05-30 10:11:18 51°19.852 2°38.956 14.7117 4.055465 32.963971 3.317614
2008-05-30 10:12:18 51°19.878 2°38.646 14.6695 4.057851 32.995483 3.456911
2008-05-30 10:13:17 51°19.902 2°38.339 14.6473 4.062727 33.065175 3.317614
2008-05-30 10:14:18 51°19.927 2°38.023 14.6261 4.065424 33.109513 3.073846
2008-05-30 10:15:17 51°19.95 2°37.719 14.5824 4.070922 33.190766 2.655957
2008-05-30 10:16:18 51°19.978 2°37.406 14.5635 4.073308 33.23671 2.586309
2008-05-30 10:17:17 51°20.002 2°37.198 14.5519 4.074138 33.257115 2.551485
2008-05-30 10:18:18 51°20.025 2°37.038 14.5282 4.075902 33.286762 2.412189
2008-05-30 10:19:18 51°20.036 2°36.927 14.5165 4.077354 33.313598 2.342541
2008-05-30 10:20:18 51°20.041 2°36.865 14.5149 4.077665 33.326465 2.342541
2008-05-30 10:21:18 51°20.056 2°36.845 14.5103 4.077977 33.33217 2.342541
2008-05-30 10:22:18 51°20.068 2°36.857 14.513 4.077977 33.335037 2.412189
2008-05-30 10:23:18 51°20.077 2°36.879 14.5125 4.078288 33.335726 2.551485
2008-05-30 10:24:18 51°20.09 2°36.903 14.5119 4.078392 33.33954 2.725606
2008-05-30 10:25:18 51°20.107 2°36.927 14.5142 4.078599 33.338565 2.795254
2008-05-30 10:26:18 51°20.121 2°36.952 14.5193 4.07891 33.33997 2.655957
2008-05-30 10:27:18 51°20.133 2°36.977 14.5227 4.079429 33.3404 2.551485
2008-05-30 10:28:18 51°20.143 2°37.002 14.5358 4.080051 33.34106 2.447013
2008-05-30 10:29:18 51°20.172 2°37.018 14.5353 4.080985 33.341692 2.377365
2008-05-30 10:30:18 51°20.199 2°36.966 14.5258 4.080673 33.34172 2.342541
2008-05-30 10:31:17 51°20.173 2°36.924 14.5193 4.079532 33.33848 2.342541
2008-05-30 10:32:18 51°20.14 2°36.86 14.5122 4.078806 33.33544 2.412189
2008-05-30 10:33:18 51°20.109 2°36.786 14.5121 4.078392 33.337389 2.238069
2008-05-30 10:34:18 51°20.087 2°36.781 14.5084 4.078599 33.342867 2.168421
2008-05-30 10:35:18 51°20.08 2°36.8 14.5092 4.07891 33.346424 2.203245
2008-05-30 10:36:18 51°20.084 2°36.82 14.5058 4.079221 33.349981 2.447013
2008-05-30 10:37:18 51°20.091 2°36.842 14.501 4.079222 33.35285 2.655957
2008-05-30 10:38:18 51°20.099 2°36.864 14.4989 4.079014 33.354544 2.795254
2008-05-30 10:39:18 51°20.108 2°36.886 14.4968 4.079222 33.35572 2.830078
2008-05-30 10:40:18 51°20.118 2°36.907 14.4953 4.079222 33.357873 2.864902
2008-05-30 10:41:18 51°20.124 2°36.93 14.4983 4.079325 33.359538 2.899726
2008-05-30 10:42:18 51°20.115 2°36.952 14.4986 4.079533 33.359996 2.899726
2008-05-30 10:43:18 51°20.099 2°36.952 14.4988 4.079948 33.36163 2.830078
2008-05-30 10:44:18 51°20.088 2°36.943 14.5025 4.080155 33.365677 2.655957
2008-05-30 10:45:18 51°20.08 2°36.937 14.4962 4.08057 33.36731 2.586309
2008-05-30 10:46:18 51°20.076 2°36.933 14.4995 4.080259 33.368059 2.586309
2008-05-30 10:47:18 51°20.075 2°36.93 14.5009 4.08057 33.368746 2.655957
2008-05-30 10:48:18 51°20.075 2°36.927 14.4999 4.08057 33.370182 2.690782
2008-05-30 10:49:17 51°20.077 2°36.925 14.5011 4.080881 33.371587 2.655957
2008-05-30 10:50:18 51°20.079 2°36.927 14.5008 4.081089 33.374198 2.690782
2008-05-30 10:51:18 51°20.079 2°36.933 14.4986 4.081192 33.374427 2.690782
2008-05-30 10:52:18 51°20.078 2°36.937 14.4999 4.0814 33.375603 2.795254
2008-05-30 10:53:18 51°20.076 2°36.935 14.5014 4.0814 33.377039 2.830078
2008-05-30 10:54:18 51°20.078 2°36.923 14.5043 4.082022 33.379847 2.725606
2008-05-30 10:55:18 51°20.085 2°36.909 14.5056 4.08223 33.381741 2.655957
2008-05-30 10:56:18 51°20.091 2°36.905 14.5029 4.082437 33.383635 2.655957
2008-05-30 10:57:18 51°20.094 2°36.923 14.5003 4.082541 33.3853 2.655957
2008-05-30 10:58:18 51°20.096 2°36.949 14.4988 4.082645 33.385528 2.725606
2008-05-30 10:59:18 51°20.096 2°36.974 14.4995 4.082541 33.386018 2.864902
2008-05-30 11:00:18 51°20.095 2°37 14.4965 4.082437 33.386508 2.864902
2008-05-30 11:01:18 51°20.094 2°37.027 14.499 4.08223 33.38605 2.864902
2008-05-30 11:02:18 51°20.091 2°37.053 14.4948 4.082126 33.385822 2.830078
2008-05-30 11:03:18 51°20.088 2°37.075 14.4976 4.082126 33.385103 2.795254
2008-05-30 11:04:18 51°20.083 2°37.092 14.4986 4.082126 33.385822 2.795254
2008-05-30 11:05:18 51°20.079 2°37.106 14.5 4.082437 33.386508 2.725606
2008-05-30 11:06:18 51°20.076 2°37.117 14.5024 4.082645 33.385528 2.725606
2008-05-30 11:07:18 51°20.073 2°37.129 14.5039 4.082645 33.386247 2.725606
2008-05-30 11:08:18 51°20.071 2°37.141 14.5025 4.082541 33.384581 2.969374
2008-05-30 11:09:18 51°20.07 2°37.154 14.4994 4.082645 33.384092 2.969374
2008-05-30 11:10:18 51°20.069 2°37.168 14.5038 4.082748 33.385039 2.864902
2008-05-30 11:11:18 51°20.068 2°37.181 14.5042 4.082956 33.386214 2.76043
2008-05-30 11:12:18 51°20.067 2°37.195 14.5051 4.083163 33.388826 2.586309
2008-05-30 11:13:18 51°20.065 2°37.208 14.5076 4.083578 33.391895 2.481837
2008-05-30 11:14:18 51°20.064 2°37.222 14.5081 4.08057 33.363722 2.481837
2008-05-30 11:15:18 51°20.061 2°37.236 14.5082 4.084201 33.395421 2.516661
2008-05-30 11:16:18 51°20.06 2°37.25 14.5062 4.084408 33.396596 2.481837
2008-05-30 11:17:18 51°20.058 2°37.262 14.5061 4.084615 33.399208 2.551485
2008-05-30 11:18:18 51°20.057 2°37.274 14.5082 4.084719 33.401592 2.516661
2008-05-30 11:19:18 51°20.056 2°37.286 14.5059 4.08503 33.402995 2.516661
2008-05-30 11:20:18 51°20.056 2°37.298 14.5044 4.084927 33.404204 2.516661
2008-05-30 11:21:18 51°20.055 2°37.311 14.5034 4.085134 33.406097 2.516661
2008-05-30 11:22:18 51°20.053 2°37.323 14.5034 4.085134 33.406816 2.516661
2008-05-30 11:23:18 51°20.051 2°37.334 14.5051 4.08503 33.407306 2.551485
2008-05-30 11:24:18 51°20.049 2°37.344 14.5069 4.085238 33.407763 2.551485
2008-05-30 11:25:18 51°20.053 2°37.36 14.5085 4.085549 33.407729 2.551485
2008-05-30 11:26:18 51°20.094 2°37.359 14.5127 4.085756 33.408186 2.586309
2008-05-30 11:27:18 51°20.108 2°37.274 14.5095 4.086171 33.409098 2.725606
2008-05-30 11:28:18 51°20.089 2°37.17 14.5072 4.085964 33.407924 2.830078
2008-05-30 11:29:18 51°20.09 2°37.11 14.5005 4.085756 33.408904 2.725606
2008-05-30 11:30:18 51°20.091 2°37.087 14.5006 4.085445 33.408938 2.690782
2008-05-30 11:31:18 51°20.09 2°37.096 14.4993 4.085342 33.410147 2.725606
2008-05-30 11:32:18 51°20.088 2°37.105 14.4917 4.085238 33.412076 2.93455
2008-05-30 11:33:18 51°20.085 2°37.112 14.4949 4.084927 33.411391 3.004198
2008-05-30 11:34:18 51°20.081 2°37.117 14.4928 4.085134 33.413285 3.039022
2008-05-30 11:35:18 51°20.076 2°37.124 14.4947 4.085031 33.413057 3.039022
2008-05-30 11:36:18 51°20.072 2°37.128 14.4916 4.084927 33.412829 3.073846
2008-05-30 11:37:18 51°20.065 2°37.13 14.4931 4.085031 33.413057 3.004198
2008-05-30 11:38:18 51°20.05 2°37.103 14.4951 4.085238 33.413513 2.969374
2008-05-30 11:39:18 51°20.044 2°37.069 14.4938 4.085238 33.414951 3.004198
2008-05-30 11:40:18 51°20.043 2°37.048 14.4927 4.085238 33.41567 2.969374
2008-05-30 11:41:18 51°20.039 2°37.037 14.4893 4.085238 33.417108 2.899726
2008-05-30 11:42:18 51°20.035 2°37.032 14.4918 4.085342 33.418775 2.93455
2008-05-30 11:43:18 51°20.031 2°37.034 14.4914 4.085549 33.419231 2.864902
2008-05-30 11:44:18 51°20.025 2°37.032 14.4922 4.085549 33.41995 2.899726
2008-05-30 11:45:18 51°20.019 2°37.019 14.4986 4.08586 33.421353 2.864902
2008-05-30 11:46:18 51°20.016 2°37.009 14.5017 4.086586 33.422949 2.864902
2008-05-30 11:47:18 51°20.013 2°37.004 14.5007 4.086586 33.422949 2.795254
2008-05-30 11:48:18 51°20.009 2°37.003 14.501 4.086794 33.424124 2.830078
2008-05-30 11:49:18 51°20.005 2°37.002 14.5013 4.086794 33.423405 2.899726
2008-05-30 11:50:18 51°20.001 2°37.005 14.51 4.086898 33.422914 2.93455
2008-05-30 11:51:18 51°19.997 2°37.008 14.5034 4.087209 33.422879 2.969374
2008-05-30 11:52:18 51°19.993 2°37.011 14.5041 4.087001 33.422423 3.004198
2008-05-30 11:53:18 51°19.99 2°37.015 14.5062 4.087001 33.421704 2.969374
2008-05-30 11:54:18 51°19.986 2°37.019 14.5058 4.086794 33.421248 3.004198
2008-05-30 11:55:18 51°19.982 2°37.024 14.5037 4.086794 33.41981 3.004198
2008-05-30 11:56:18 51°19.979 2°37.029 14.5052 4.08669 33.420301 2.969374
2008-05-30 11:57:18 51°19.977 2°37.034 14.5099 4.086898 33.419319 2.899726
2008-05-30 11:58:18 51°19.975 2°37.038 14.5086 4.087001 33.419547 3.004198
2008-05-30 11:59:18 51°19.972 2°37.041 14.5132 4.087001 33.41811 2.969374
2008-05-30 12:00:18 51°19.97 2°37.044 14.5182 4.087209 33.41641 3.004198
2008-05-30 12:01:18 51°19.967 2°37.045 14.5229 4.087727 33.415395 3.073846
2008-05-30 12:02:18 51°19.965 2°37.049 14.529 4.087935 33.414414 3.073846
2008-05-30 12:03:18 51°19.963 2°37.052 14.5374 4.088246 33.410789 3.213142
2008-05-30 12:04:18 51°19.961 2°37.054 14.544 4.088453 33.40622 3.213142
2008-05-30 12:05:18 51°19.958 2°37.056 14.5544 4.088764 33.402599 3.178318
2008-05-30 12:06:18 51°19.956 2°37.057 14.5533 4.089179 33.399925 3.247966
2008-05-30 12:07:18 51°19.954 2°37.056 14.5591 4.089283 33.399436 3.28279
2008-05-30 12:08:18 51°19.951 2°37.057 14.5603 4.089386 33.398229 3.28279
2008-05-30 12:09:18 51°19.948 2°37.057 14.5664 4.08949 33.395589 3.317614
2008-05-30 12:10:18 51°19.944 2°37.058 14.5705 4.089594 33.392949 3.352439
2008-05-30 12:11:18 51°19.941 2°37.057 14.5766 4.089594 33.390082 3.387263
2008-05-30 12:12:18 51°19.931 2°37.036 14.5854 4.089905 33.385034 3.387263
2008-05-30 12:13:18 51°19.929 2°36.984 14.5924 4.089905 33.37787 3.352439
2008-05-30 12:14:18 51°19.94 2°36.945 14.5968 4.089178 33.36696 3.317614
2008-05-30 12:15:18 51°19.952 2°36.923 14.6007 4.088867 33.360547 3.28279
2008-05-30 12:16:18 51°19.959 2°36.914 14.6033 4.089282 33.360748 3.317614
2008-05-30 12:17:18 51°19.959 2°36.912 14.6026 4.089282 33.359317 3.387263
2008-05-30 12:18:18 51°19.954 2°36.911 14.6032 4.089075 33.357427 3.387263
2008-05-30 12:19:18 51°19.95 2°36.907 14.6002 4.08866 33.355795 3.596207
2008-05-30 12:20:18 51°19.945 2°36.902 14.5981 4.088452 33.354622 3.596207
2008-05-30 12:21:18 51°19.94 2°36.895 14.6 4.088349 33.354392 3.561383
2008-05-30 12:22:18 51°19.935 2°36.889 14.6013 4.088349 33.352246 3.422087
2008-05-30 12:23:18 51°19.93 2°36.883 14.606 4.088348 33.350816 3.352439
2008-05-30 12:24:18 51°19.917 2°36.945 14.6105 4.088556 33.348413 3.143494
2008-05-30 12:25:18 51°19.874 2°36.958 14.6089 4.08866 33.350788 3.10867
2008-05-30 12:26:18 51°19.864 2°36.953 14.6126 4.087311 33.330648 3.422087
2008-05-30 12:27:18 51°19.854 2°36.95 14.6448 4.086688 33.3107 3.561383
2008-05-30 12:28:18 51°19.843 2°36.944 14.6324 4.086896 33.296178 3.178318
2008-05-30 12:29:18 51°19.826 2°36.939 14.6288 4.084821 33.286581 3.247966
2008-05-30 12:30:18 51°19.808 2°36.993 14.6545 4.084199 33.283772 3.665855
2008-05-30 12:31:18 51°19.857 2°37.026 14.73 4.083368 33.225689 2.795254
2008-05-30 12:32:18 51°19.908 2°36.996 14.6927 4.085027 33.202422 2.655957
2008-05-30 12:33:18 51°19.946 2°36.964 14.6642 4.085236 33.255449 2.238069
2008-05-30 12:34:18 51°19.972 2°36.946 14.6652 4.085651 33.272034 2.307717
2008-05-30 12:35:18 51°19.991 2°36.939 14.6476 4.092393 33.334043 2.412189
2008-05-30 12:36:18 51°20.004 2°36.933 14.6359 4.093327 33.355385 3.004198
2008-05-30 12:37:18 51°20.013 2°36.93 14.6331 4.093535 33.359416 3.178318
2008-05-30 12:38:18 51°20.02 2°36.928 14.6415 4.093327 33.362531 3.28279
2008-05-30 12:39:18 51°20.025 2°36.926 14.6456 4.094572 33.360993 2.864902
2008-05-30 12:40:18 51°20.027 2°36.923 14.6554 4.094987 33.363338 2.621133
2008-05-30 12:41:18 51°20.028 2°36.922 14.6654 4.095609 33.365426 2.133597
2008-05-30 12:42:18 51°20.041 2°36.925 14.6497 4.096542 33.365345 2.203245
2008-05-30 12:43:18 51°20.077 2°36.934 14.6083 4.09592 33.373973 2.168421
2008-05-30 12:44:18 51°20.109 2°36.938 14.5843 4.093846 33.383699 1.611236
2008-05-30 12:45:18 51°20.132 2°36.937 14.5853 4.089593 33.360004 1.889828
2008-05-30 12:46:18 51°20.148 2°36.93 14.5897 4.087623 33.356366 2.516661
2008-05-30 12:47:18 51°20.159 2°36.921 14.5882 4.088245 33.350586 2.586309
2008-05-30 12:48:18 51°20.171 2°36.915 14.6157 4.088348 33.346524 2.586309
2008-05-30 12:49:18 51°20.19 2°36.946 14.6121 4.0898 33.343302 2.412189
2008-05-30 12:50:18 51°20.148 2°37.003 14.6588 4.089178 33.329781 1.9943
2008-05-30 12:51:18 51°20.115 2°36.993 14.7421 4.086169 33.241884 1.541588
2008-05-30 12:52:18 51°20.099 2°36.973 14.7583 4.08316 33.18265 2.412189
2008-05-30 12:53:18 51°20.087 2°36.954 14.7861 4.082641 33.151046 2.412189
2008-05-30 12:54:18 51°20.075 2°36.935 14.7935 4.083159 33.140898 2.586309
2008-05-30 12:55:18 51°20.066 2°36.917 14.7926 4.083885 33.141823 2.830078
2008-05-30 12:56:18 51°20.057 2°36.9 14.7995 4.083885 33.139703 2.899726
2008-05-30 12:57:18 51°20.049 2°36.883 14.8002 4.084197 33.13687 3.10867
2008-05-30 12:58:18 51°20.041 2°36.867 14.798 4.084197 33.137577 3.352439
2008-05-30 12:59:18 51°20.032 2°36.851 14.8066 4.083885 33.133346 3.039022
2008-05-30 13:00:18 51°20.023 2°36.834 14.8021 4.0843 33.132866 3.213142
2008-05-30 13:01:18 51°20.014 2°36.819 14.8114 4.083885 33.129816 3.10867
2008-05-30 13:02:18 51°20 2°36.798 14.8107 4.084715 33.130269 3.317614
2008-05-30 13:03:19 51°19.901 2°36.764 14.8162 4.083885 33.128404 3.387263
2008-05-30 13:04:19 51°19.777 2°36.892 14.8018 4.083263 33.128417 2.93455
2008-05-30 13:05:18 51°19.688 2°37.152 14.7966 4.082122 33.123027 2.307717
2008-05-30 13:06:18 51°19.597 2°37.424 14.7906 4.079425 33.102133 2.377365
2008-05-30 13:07:19 51°19.499 2°37.699 14.7807 4.078595 33.098852 2.516661
2008-05-30 13:08:19 51°19.402 2°37.972 14.7835 4.078181 33.110627 2.655957
2008-05-30 13:09:19 51°19.304 2°38.247 14.7948 4.079944 33.116715 2.864902
2008-05-30 13:10:19 51°19.207 2°38.527 14.8607 4.077039 33.057978 3.422087
2008-05-30 13:11:19 51°19.112 2°38.81 14.8865 4.074653 32.999139 3.735503
2008-05-30 13:12:19 51°19.014 2°39.092 14.9597 4.068843 32.897669 3.979271
2008-05-30 13:13:19 51°18.908 2°39.37 14.9944 4.067286 32.830656 4.153392
2008-05-30 13:14:18 51°18.799 2°39.639 14.9989 4.062618 32.7664 4.257864
2008-05-30 13:15:19 51°18.689 2°39.908 14.9407 4.056395 32.740916 3.561383
2008-05-30 13:16:18 51°18.582 2°40.171 14.8821 4.047268 32.701728 3.735503
2008-05-30 13:17:18 51°18.475 2°40.432 14.8691 4.040216 32.669381 4.014096
2008-05-30 13:18:18 51°18.367 2°40.688 14.9347 4.037415 32.66009 4.292688
2008-05-30 13:19:18 51°18.258 2°40.944 14.9838 4.039385 32.605078 4.118568
2008-05-30 13:20:18 51°18.157 2°41.208 15.0733 4.039799 32.568059 5.093641
2008-05-30 13:21:18 51°18.053 2°41.475 15.0941 4.035546 32.463829 6.80002
2008-05-30 13:22:18 51°17.946 2°41.742 15.0668 4.032849 32.42388 6.208011
2008-05-30 13:23:18 51°17.835 2°42.004 15.0239 4.020714 32.356782 4.884697
2008-05-30 13:24:18 51°17.725 2°42.268 15.0308 4.014803 32.322193 4.57128
2008-05-30 13:25:19 51°17.612 2°42.535 14.9972 4.013558 32.31444 4.675753
2008-05-30 13:26:18 51°17.512 2°42.797 14.9684 4.009514 32.310957 4.919521
2008-05-30 13:27:18 51°17.407 2°43.047 14.9725 4.006921 32.296557 4.989169
2008-05-30 13:28:18 51°17.306 2°43.302 14.9774 4.006195 32.277035 4.710577
2008-05-30 13:29:18 51°17.202 2°43.56 15.0257 4.002773 32.250393 4.919521
2008-05-30 13:30:18 51°17.095 2°43.819 15.0696 4.001424 32.198037 5.058817
2008-05-30 13:31:18 51°16.98 2°44.075 15.1092 4.001631 32.165875 5.302586
2008-05-30 13:32:18 51°16.869 2°44.335 15.19 4.004015 32.149892 5.51153
2008-05-30 13:33:19 51°16.76 2°44.603 15.2395 4.006711 32.111026 5.650826
2008-05-30 13:34:18 51°16.656 2°44.864 15.2407 4.007955 32.097145 5.68565
2008-05-30 13:35:18 51°16.546 2°45.125 15.2751 4.009614 32.103183 5.894594
2008-05-30 13:36:19 51°16.44 2°45.396 15.2928 4.010962 32.088905 5.790122
2008-05-30 13:37:18 51°16.345 2°45.666 15.2929 4.010651 32.078044 5.964243
2008-05-30 13:38:19 51°16.265 2°45.954 15.3033 4.009614 32.06543 6.103539
2008-05-30 13:39:19 51°16.209 2°46.25 15.3091 4.008162 32.046429 6.312483
2008-05-30 13:40:19 51°16.165 2°46.55 15.3185 4.007643 32.033065 6.173187
2008-05-30 13:41:19 51°16.107 2°46.847 15.3176 4.007124 32.024412 6.347307
2008-05-30 13:42:19 51°16.044 2°47.141 15.3271 4.00588 32.009966 6.138363
2008-05-30 13:43:19 51°15.983 2°47.434 15.3233 4.00422 31.989816 5.929418
2008-05-30 13:44:19 51°15.927 2°47.724 15.325 4.002872 31.983847 5.407058
2008-05-30 13:45:19 51°15.861 2°48.009 15.3948 3.998827 31.924383 5.616002
2008-05-30 13:46:19 51°15.796 2°48.294 15.4406 3.996337 31.864167 6.103539
2008-05-30 13:47:19 51°15.737 2°48.585 15.6429 3.991151 31.739712 6.277659
2008-05-30 13:48:19 51°15.664 2°48.867 15.7538 3.981918 31.511336 7.252733
2008-05-30 13:49:19 51°15.586 2°49.146 15.8097 3.978909 31.41962 7.879566
2008-05-30 13:50:19 51°15.506 2°49.423 15.8404 3.974242 31.339639 8.367102
2008-05-30 13:51:19 51°15.421 2°49.699 15.8652 3.970819 31.282417 9.098407
2008-05-30 13:52:19 51°15.359 2°49.985 15.9134 3.966878 31.227199 9.864537
2008-05-30 13:53:19 51°15.303 2°50.275 15.9706 3.962211 31.143873 10.456545
2008-05-30 13:54:19 51°15.243 2°50.562 16 3.953085 31.030751 12.545989
2008-05-30 13:55:19 51°15.181 2°50.85 16.0253 3.946136 30.94201 13.277294
2008-05-30 13:56:19 51°15.135 2°51.144 16.0616 3.945617 30.915247 13.103174
2008-05-30 13:57:19 51°15.085 2°51.44 16.0973 3.944684 30.88491 13.207646
2008-05-30 13:58:19 51°15.041 2°51.734 16.1244 3.939498 30.808741 13.486238
2008-05-30 13:59:19 51°14.984 2°52.023 16.1246 3.937217 30.775633 13.869303
2008-05-30 14:00:19 51°14.913 2°52.304 16.2939 3.822434 29.55888 -0.373735
2008-05-30 14:01:19 51°14.849 2°52.588 16.3726 0.421842 2.701753 -1.731873
2008-05-30 14:02:19 51°14.8 2°52.879 16.4427 0.102206 0.607749 -1.731873
2008-05-30 14:03:19 51°14.76 2°53.171 16.4991 0.001354 0.013505 -1.731873
2008-05-30 14:04:19 51°14.732 2°53.468 16.5636 0.061246 0.357386 -1.731873
2008-05-30 14:05:18 51°14.703 2°53.759 16.645 0.060629 0.3537 -1.731873
2008-05-30 14:06:18 51°14.674 2°54.057 16.7209 0.061761 0.360536 -1.731873
2008-05-30 14:07:18 51°14.629 2°54.345 16.7961 0.062996 0.367993 -1.731873
2008-05-30 14:08:19 51°14.543 2°54.62 16.8636 0.063716 0.372379 -1.731873
2008-05-30 14:09:19 51°14.443 2°54.882 16.9435 0.063613 0.371757 -1.731873
2008-05-30 14:10:19 51°14.338 2°55.142 16.9932 0.063202 0.369264 -1.731873
2008-05-30 14:11:19 51°14.247 2°55.304 17.0422 0.06279 0.366772 -1.731873
2008-05-30 14:12:19 51°14.162 2°55.395 17.0997 0.062481 0.364916 -1.731873
2008-05-30 14:13:19 51°14.051 2°55.48 17.1462 0.062173 0.363039 -1.731873
2008-05-30 14:14:19 51°13.964 2°55.546 17.2024 0.061761 0.360536 -1.731873